sensor_id;sensor_type;location;lat;lon;timestamp;pressure;altitude;pressure_sealevel;temperature;humidity
3524;BME280;1776;53.330;11.498;2023-02-05T00:01:54;23654.16;;;-147.39;61.23
3524;BME280;1776;53.330;11.498;2023-02-05T00:04:20;23643.97;;;-147.39;61.25
3524;BME280;1776;53.330;11.498;2023-02-05T00:06:45;23650.09;;;-147.39;61.46
3524;BME280;1776;53.330;11.498;2023-02-05T00:09:10;23662.28;;;-147.39;60.89
3524;BME280;1776;53.330;11.498;2023-02-05T00:11:36;23650.09;;;-147.39;61.46
3524;BME280;1776;53.330;11.498;2023-02-05T00:14:01;23678.53;;;-147.39;61.20
3524;BME280;1776;53.330;11.498;2023-02-05T00:16:26;23611.44;;;-147.39;61.57
3524;BME280;1776;53.330;11.498;2023-02-05T00:18:52;23635.84;;;-147.39;61.50
3524;BME280;1776;53.330;11.498;2023-02-05T00:21:18;23574.84;;;-147.39;61.44
3524;BME280;1776;53.330;11.498;2023-02-05T00:23:44;23574.84;;;-147.39;61.44
3524;BME280;1776;53.330;11.498;2023-02-05T00:26:10;23637.88;;;-147.39;61.47
3524;BME280;1776;53.330;11.498;2023-02-05T00:28:37;23578.94;;;-147.39;61.36
3524;BME280;1776;53.330;11.498;2023-02-05T00:31:11;23603.31;;;-147.39;61.44
3524;BME280;1776;53.330;11.498;2023-02-05T00:33:37;23672.44;;;-147.39;61.17
3524;BME280;1776;53.330;11.498;2023-02-05T00:36:03;23623.66;;;-147.39;60.97
3524;BME280;1776;53.330;11.498;2023-02-05T00:38:29;23607.38;;;-147.39;61.32
3524;BME280;1776;53.330;11.498;2023-02-05T00:40:54;23656.19;;;-147.39;61.04
3524;BME280;1776;53.330;11.498;2023-02-05T00:43:19;23603.31;;;-147.39;60.90
3524;BME280;1776;53.330;11.498;2023-02-05T00:45:45;23609.41;;;-147.39;61.13
3524;BME280;1776;53.330;11.498;2023-02-05T00:48:10;23627.72;;;-147.39;60.78
3524;BME280;1776;53.330;11.498;2023-02-05T00:50:35;23627.72;;;-147.39;60.63
3524;BME280;1776;53.330;11.498;2023-02-05T00:53:01;23605.34;;;-147.39;60.86
3524;BME280;1776;53.330;11.498;2023-02-05T00:55:26;23623.66;;;-147.39;60.93
3524;BME280;1776;53.330;11.498;2023-02-05T00:57:51;23607.38;;;-147.39;60.61
3524;BME280;1776;53.330;11.498;2023-02-05T01:00:17;23635.84;;;-147.39;60.37
3524;BME280;1776;53.330;11.498;2023-02-05T01:02:42;23621.63;;;-147.39;60.59
3524;BME280;1776;53.330;11.498;2023-02-05T01:05:08;23643.97;;;-147.39;60.14
3524;BME280;1776;53.330;11.498;2023-02-05T01:07:33;23617.56;;;-147.39;60.20
3524;BME280;1776;53.330;11.498;2023-02-05T01:09:59;23641.94;;;-147.39;59.96
3524;BME280;1776;53.330;11.498;2023-02-05T01:12:25;23680.56;;;-147.39;60.27
3524;BME280;1776;53.330;11.498;2023-02-05T01:14:50;23625.69;;;-147.39;60.27
3524;BME280;1776;53.330;11.498;2023-02-05T01:17:17;23643.97;;;-147.39;59.87
3524;BME280;1776;53.330;11.498;2023-02-05T01:19:43;23631.78;;;-147.39;60.04
3524;BME280;1776;53.330;11.498;2023-02-05T01:22:10;23646.00;;;-147.39;60.27
3524;BME280;1776;53.330;11.498;2023-02-05T01:24:37;23631.78;;;-147.39;60.17
3524;BME280;1776;53.330;11.498;2023-02-05T01:27:03;23633.81;;;-147.39;60.24
3524;BME280;1776;53.330;11.498;2023-02-05T01:29:30;23613.47;;;-147.39;59.78
3524;BME280;1776;53.330;11.498;2023-02-05T01:31:56;23593.16;;;-147.39;60.04
3524;BME280;1776;53.330;11.498;2023-02-05T01:34:22;23607.38;;;-147.39;59.94
3524;BME280;1776;53.330;11.498;2023-02-05T01:36:47;23650.09;;;-147.39;60.13
3524;BME280;1776;53.330;11.498;2023-02-05T01:39:13;23613.47;;;-147.39;59.61
3524;BME280;1776;53.330;11.498;2023-02-05T01:41:39;23599.25;;;-147.39;59.65
3524;BME280;1776;53.330;11.498;2023-02-05T01:44:16;23617.56;;;-147.39;59.76
3524;BME280;1776;53.330;11.498;2023-02-05T01:46:52;23635.84;;;-147.39;60.17
3524;BME280;1776;53.330;11.498;2023-02-05T01:49:30;23613.47;;;-147.39;59.76
3524;BME280;1776;53.330;11.498;2023-02-05T01:52:04;23607.38;;;-147.39;60.01
3524;BME280;1776;53.330;11.498;2023-02-05T01:54:32;23656.19;;;-147.39;59.61
3524;BME280;1776;53.330;11.498;2023-02-05T01:57:03;23609.41;;;-147.39;59.82
3524;BME280;1776;53.330;11.498;2023-02-05T01:59:32;23635.84;;;-147.39;59.60
3524;BME280;1776;53.330;11.498;2023-02-05T02:01:59;23601.28;;;-147.39;59.62
3524;BME280;1776;53.330;11.498;2023-02-05T02:04:46;23621.63;;;-147.39;59.95
3524;BME280;1776;53.330;11.498;2023-02-05T02:07:15;23607.38;;;-147.39;59.80
3524;BME280;1776;53.330;11.498;2023-02-05T02:09:42;23658.22;;;-147.39;59.92
3524;BME280;1776;53.330;11.498;2023-02-05T02:12:09;23627.72;;;-147.39;59.94
3524;BME280;1776;53.330;11.498;2023-02-05T02:14:36;23605.34;;;-147.39;60.09
3524;BME280;1776;53.330;11.498;2023-02-05T02:17:04;23686.69;;;-147.39;59.82
3524;BME280;1776;53.330;11.498;2023-02-05T02:20:00;23601.28;;;-147.39;60.10
3524;BME280;1776;53.330;11.498;2023-02-05T02:22:46;23617.56;;;-147.39;60.48
3524;BME280;1776;53.330;11.498;2023-02-05T02:28:59;23568.75;;;-147.39;60.80
3524;BME280;1776;53.330;11.498;2023-02-05T02:31:37;23578.94;;;-147.39;60.78
3524;BME280;1776;53.330;11.498;2023-02-05T02:34:10;23593.16;;;-147.39;60.74
3524;BME280;1776;53.330;11.498;2023-02-05T02:36:51;23580.97;;;-147.39;60.60
3524;BME280;1776;53.330;11.498;2023-02-05T02:39:36;23601.28;;;-147.39;60.42
3524;BME280;1776;53.330;11.498;2023-02-05T02:47:20;23625.69;;;-147.39;60.46
3524;BME280;1776;53.330;11.498;2023-02-05T02:50:00;23599.25;;;-147.39;60.06
3524;BME280;1776;53.330;11.498;2023-02-05T02:52:29;23601.28;;;-147.39;60.26
3524;BME280;1776;53.330;11.498;2023-02-05T02:54:57;23635.84;;;-147.39;60.33
3524;BME280;1776;53.330;11.498;2023-02-05T02:57:28;23564.69;;;-147.39;60.40
3524;BME280;1776;53.330;11.498;2023-02-05T02:59:55;23601.28;;;-147.39;60.46
3524;BME280;1776;53.330;11.498;2023-02-05T03:02:23;23599.25;;;-147.39;60.23
3524;BME280;1776;53.330;11.498;2023-02-05T03:04:53;23621.63;;;-147.39;59.91
3524;BME280;1776;53.330;11.498;2023-02-05T03:07:33;23666.34;;;-147.39;60.44
3524;BME280;1776;53.330;11.498;2023-02-05T03:10:10;23696.84;;;-147.39;60.84
3524;BME280;1776;53.330;11.498;2023-02-05T03:12:38;23621.63;;;-147.39;60.55
3524;BME280;1776;53.330;11.498;2023-02-05T03:15:04;23578.94;;;-147.39;60.89
3524;BME280;1776;53.330;11.498;2023-02-05T03:17:30;23574.84;;;-147.39;60.93
3524;BME280;1776;53.330;11.498;2023-02-05T03:20:21;23578.94;;;-147.39;60.87
3524;BME280;1776;53.330;11.498;2023-02-05T03:22:44;23578.94;;;-147.39;61.35
3524;BME280;1776;53.330;11.498;2023-02-05T03:25:10;23560.63;;;-147.39;61.37
3524;BME280;1776;53.330;11.498;2023-02-05T03:27:35;23568.75;;;-147.39;61.31
3524;BME280;1776;53.330;11.498;2023-02-05T03:30:03;23574.84;;;-147.39;61.35
3524;BME280;1776;53.330;11.498;2023-02-05T03:32:37;23566.72;;;-147.39;61.01
3524;BME280;1776;53.330;11.498;2023-02-05T03:38:03;23576.88;;;-147.39;61.42
3524;BME280;1776;53.330;11.498;2023-02-05T03:40:47;23609.41;;;-147.39;61.08
3524;BME280;1776;53.330;11.498;2023-02-05T03:43:31;23556.56;;;-147.39;60.86
3524;BME280;1776;53.330;11.498;2023-02-05T03:46:07;23605.34;;;-147.39;60.59
3524;BME280;1776;53.330;11.498;2023-02-05T03:51:50;23646.00;;;-147.39;60.43
3524;BME280;1776;53.330;11.498;2023-02-05T03:54:19;23650.09;;;-147.39;60.48
3524;BME280;1776;53.330;11.498;2023-02-05T03:56:59;23672.44;;;-147.39;60.42
3524;BME280;1776;53.330;11.498;2023-02-05T03:59:29;23597.22;;;-147.39;60.65
3524;BME280;1776;53.330;11.498;2023-02-05T04:01:55;23583.00;;;-147.39;60.46
3524;BME280;1776;53.330;11.498;2023-02-05T04:04:21;23580.97;;;-147.39;60.65
3524;BME280;1776;53.330;11.498;2023-02-05T04:06:48;23617.56;;;-147.39;60.65
3524;BME280;1776;53.330;11.498;2023-02-05T04:09:15;23617.56;;;-147.39;60.72
3524;BME280;1776;53.330;11.498;2023-02-05T04:11:40;23574.84;;;-147.39;60.78
3524;BME280;1776;53.330;11.498;2023-02-05T04:14:05;23570.78;;;-147.39;60.74
3524;BME280;1776;53.330;11.498;2023-02-05T04:16:31;23668.38;;;-147.39;61.16
3524;BME280;1776;53.330;11.498;2023-02-05T04:18:56;23585.03;;;-147.39;61.27
3524;BME280;1776;53.330;11.498;2023-02-05T04:21:21;23564.69;;;-147.39;61.01
3524;BME280;1776;53.330;11.498;2023-02-05T04:23:47;23572.81;;;-147.39;61.07
3524;BME280;1776;53.330;11.498;2023-02-05T04:26:12;23544.38;;;-147.39;61.24
3524;BME280;1776;53.330;11.498;2023-02-05T04:28:37;23570.78;;;-147.39;61.93
3524;BME280;1776;53.330;11.498;2023-02-05T04:31:06;23564.69;;;-147.39;62.22
3524;BME280;1776;53.330;11.498;2023-02-05T04:33:32;23595.19;;;-147.39;61.88
3524;BME280;1776;53.330;11.498;2023-02-05T04:35:58;23566.72;;;-147.39;61.95
3524;BME280;1776;53.330;11.498;2023-02-05T04:38:23;23556.56;;;-147.39;61.95
3524;BME280;1776;53.330;11.498;2023-02-05T04:40:49;23552.50;;;-147.39;62.17
3524;BME280;1776;53.330;11.498;2023-02-05T04:43:14;23538.25;;;-147.39;61.73
3524;BME280;1776;53.330;11.498;2023-02-05T04:45:39;23562.66;;;-147.39;61.86
3524;BME280;1776;53.330;11.498;2023-02-05T04:48:04;23548.44;;;-147.39;61.71
3524;BME280;1776;53.330;11.498;2023-02-05T04:50:31;23570.78;;;-147.39;61.69
3524;BME280;1776;53.330;11.498;2023-02-05T04:52:56;23572.81;;;-147.39;61.93
3524;BME280;1776;53.330;11.498;2023-02-05T04:55:21;23568.75;;;-147.39;61.79
3524;BME280;1776;53.330;11.498;2023-02-05T04:57:47;23526.06;;;-147.39;61.91
3524;BME280;1776;53.330;11.498;2023-02-05T05:00:12;23558.59;;;-147.39;61.78
3524;BME280;1776;53.330;11.498;2023-02-05T05:02:38;23593.16;;;-147.39;61.82
3524;BME280;1776;53.330;11.498;2023-02-05T05:05:03;23583.00;;;-147.39;61.52
3524;BME280;1776;53.330;11.498;2023-02-05T05:07:29;23574.84;;;-147.39;61.45
3524;BME280;1776;53.330;11.498;2023-02-05T05:09:54;23593.16;;;-147.39;61.20
3524;BME280;1776;53.330;11.498;2023-02-05T05:12:20;23607.38;;;-147.39;60.76
3524;BME280;1776;53.330;11.498;2023-02-05T05:14:45;23599.25;;;-147.39;60.82
3524;BME280;1776;53.330;11.498;2023-02-05T05:17:10;23554.53;;;-147.39;61.12
3524;BME280;1776;53.330;11.498;2023-02-05T05:19:37;23585.03;;;-147.39;60.84
3524;BME280;1776;53.330;11.498;2023-02-05T05:22:02;23572.81;;;-147.39;61.02
3524;BME280;1776;53.330;11.498;2023-02-05T05:24:28;23572.81;;;-147.39;61.19
3524;BME280;1776;53.330;11.498;2023-02-05T05:26:53;23605.34;;;-147.39;61.01
3524;BME280;1776;53.330;11.498;2023-02-05T05:29:18;23605.34;;;-147.39;61.36
3524;BME280;1776;53.330;11.498;2023-02-05T05:31:43;23570.78;;;-147.39;61.29
3524;BME280;1776;53.330;11.498;2023-02-05T05:34:09;23587.06;;;-147.39;61.37
3524;BME280;1776;53.330;11.498;2023-02-05T05:36:34;23574.84;;;-147.39;61.67
3524;BME280;1776;53.330;11.498;2023-02-05T05:38:59;23595.19;;;-147.39;61.29
3524;BME280;1776;53.330;11.498;2023-02-05T05:41:45;23637.88;;;-147.39;62.01
3524;BME280;1776;53.330;11.498;2023-02-05T05:44:28;23528.09;;;-147.39;62.20
3524;BME280;1776;53.330;11.498;2023-02-05T05:46:54;23583.00;;;-147.39;62.47
3524;BME280;1776;53.330;11.498;2023-02-05T05:49:19;23556.56;;;-147.39;62.57
3524;BME280;1776;53.330;11.498;2023-02-05T05:51:44;23558.59;;;-147.39;62.17
3524;BME280;1776;53.330;11.498;2023-02-05T05:54:10;23528.09;;;-147.39;62.27
3524;BME280;1776;53.330;11.498;2023-02-05T05:56:35;23570.78;;;-147.39;61.98
3524;BME280;1776;53.330;11.498;2023-02-05T05:59:00;23564.69;;;-147.39;61.92
3524;BME280;1776;53.330;11.498;2023-02-05T06:01:26;23572.81;;;-147.39;61.86
3524;BME280;1776;53.330;11.498;2023-02-05T06:03:51;23587.06;;;-147.39;61.89
3524;BME280;1776;53.330;11.498;2023-02-05T06:06:17;23546.41;;;-147.39;62.39
3524;BME280;1776;53.330;11.498;2023-02-05T06:08:42;23597.22;;;-147.39;61.99
3524;BME280;1776;53.330;11.498;2023-02-05T06:11:07;23548.44;;;-147.39;61.97
3524;BME280;1776;53.330;11.498;2023-02-05T06:13:33;23587.06;;;-147.39;61.84
3524;BME280;1776;53.330;11.498;2023-02-05T06:15:59;23558.59;;;-147.39;62.23
3524;BME280;1776;53.330;11.498;2023-02-05T06:18:24;23574.84;;;-147.39;62.40
3524;BME280;1776;53.330;11.498;2023-02-05T06:20:49;23530.13;;;-147.39;62.27
3524;BME280;1776;53.330;11.498;2023-02-05T06:23:15;23562.66;;;-147.39;62.60
3524;BME280;1776;53.330;11.498;2023-02-05T06:25:40;23536.22;;;-147.39;62.61
3524;BME280;1776;53.330;11.498;2023-02-05T06:28:05;23568.75;;;-147.39;62.75
3524;BME280;1776;53.330;11.498;2023-02-05T06:30:31;23532.16;;;-147.39;62.86
3524;BME280;1776;53.330;11.498;2023-02-05T06:32:56;23534.19;;;-147.39;62.72
3524;BME280;1776;53.330;11.498;2023-02-05T06:35:21;23544.38;;;-147.39;63.38
3524;BME280;1776;53.330;11.498;2023-02-05T06:37:46;23493.53;;;-147.39;63.25
3524;BME280;1776;53.330;11.498;2023-02-05T06:40:12;23532.16;;;-147.39;63.34
3524;BME280;1776;53.330;11.498;2023-02-05T06:42:39;23524.03;;;-147.39;63.46
3524;BME280;1776;53.330;11.498;2023-02-05T06:45:05;23493.53;;;-147.39;63.85
3524;BME280;1776;53.330;11.498;2023-02-05T06:47:30;23493.53;;;-147.39;63.86
3524;BME280;1776;53.330;11.498;2023-02-05T06:49:55;23493.53;;;-147.39;63.86
3524;BME280;1776;53.330;11.498;2023-02-05T06:52:21;23528.09;;;-147.39;63.90
3524;BME280;1776;53.330;11.498;2023-02-05T06:54:46;23560.63;;;-147.39;63.96
3524;BME280;1776;53.330;11.498;2023-02-05T06:57:11;23517.94;;;-147.39;63.76
3524;BME280;1776;53.330;11.498;2023-02-05T06:59:37;23491.50;;;-147.39;64.13
3524;BME280;1776;53.330;11.498;2023-02-05T07:02:02;23580.97;;;-147.39;63.92
3524;BME280;1776;53.330;11.498;2023-02-05T07:04:27;23562.66;;;-147.39;64.33
3524;BME280;1776;53.330;11.498;2023-02-05T07:06:55;23493.53;;;-147.39;64.16
3524;BME280;1776;53.330;11.498;2023-02-05T07:09:21;23497.59;;;-147.39;64.23
3524;BME280;1776;53.330;11.498;2023-02-05T07:11:46;23477.28;;;-147.39;64.22
3524;BME280;1776;53.330;11.498;2023-02-05T07:14:11;23528.09;;;-147.39;64.44
3524;BME280;1776;53.330;11.498;2023-02-05T07:16:36;23481.34;;;-147.39;65.98
3524;BME280;1776;53.330;11.498;2023-02-05T07:19:02;23513.88;;;-147.39;65.33
3524;BME280;1776;53.330;11.498;2023-02-05T07:21:27;23515.91;;;-147.39;65.02
3524;BME280;1776;53.330;11.498;2023-02-05T07:23:53;23454.91;;;-147.39;64.79
3524;BME280;1776;53.330;11.498;2023-02-05T07:26:18;23485.41;;;-147.39;64.62
3524;BME280;1776;53.330;11.498;2023-02-05T07:28:43;23487.44;;;-147.39;65.36
3524;BME280;1776;53.330;11.498;2023-02-05T07:31:11;23491.50;;;-147.39;64.92
3524;BME280;1776;53.330;11.498;2023-02-05T07:33:39;23475.25;;;-147.39;64.60
3524;BME280;1776;53.330;11.498;2023-02-05T07:36:06;22891.84;;;-147.39;64.62
3524;BME280;1776;53.330;11.498;2023-02-05T07:38:33;23448.81;;;-147.39;64.19
3524;BME280;1776;53.330;11.498;2023-02-05T07:41:02;23483.38;;;-147.39;66.71
3524;BME280;1776;53.330;11.498;2023-02-05T07:43:28;23503.72;;;-147.39;64.34
3524;BME280;1776;53.330;11.498;2023-02-05T07:45:57;23505.75;;;-147.39;65.69
3524;BME280;1776;53.330;11.498;2023-02-05T07:48:22;23489.47;;;-147.39;64.53
3524;BME280;1776;53.330;11.498;2023-02-05T07:50:48;23473.22;;;-147.39;63.88
3524;BME280;1776;53.330;11.498;2023-02-05T07:53:13;23501.66;;;-147.39;63.84
3524;BME280;1776;53.330;11.498;2023-02-05T07:55:38;23497.59;;;-147.39;64.28
3524;BME280;1776;53.330;11.498;2023-02-05T07:58:03;23503.72;;;-147.39;63.63
3524;BME280;1776;53.330;11.498;2023-02-05T08:00:29;23507.78;;;-147.39;63.41
3524;BME280;1776;53.330;11.498;2023-02-05T08:02:54;23493.53;;;-147.39;63.73
3524;BME280;1776;53.330;11.498;2023-02-05T08:05:19;23517.94;;;-147.39;63.32
3524;BME280;1776;53.330;11.498;2023-02-05T08:07:44;23503.72;;;-147.39;63.38
3524;BME280;1776;53.330;11.498;2023-02-05T08:10:12;23515.91;;;-147.39;64.14
3524;BME280;1776;53.330;11.498;2023-02-05T08:12:38;23491.50;;;-147.39;63.81
3524;BME280;1776;53.330;11.498;2023-02-05T08:15:03;23493.53;;;-147.39;63.52
3524;BME280;1776;53.330;11.498;2023-02-05T08:17:29;23515.91;;;-147.39;63.46
3524;BME280;1776;53.330;11.498;2023-02-05T08:19:55;23524.03;;;-147.39;63.29
3524;BME280;1776;53.330;11.498;2023-02-05T08:22:20;23495.56;;;-147.39;63.76
3524;BME280;1776;53.330;11.498;2023-02-05T08:24:45;23493.53;;;-147.39;63.20
3524;BME280;1776;53.330;11.498;2023-02-05T08:27:10;23499.63;;;-147.39;63.56
3524;BME280;1776;53.330;11.498;2023-02-05T08:29:36;23526.06;;;-147.39;63.37
3524;BME280;1776;53.330;11.498;2023-02-05T08:32:01;23519.97;;;-147.39;63.73
3524;BME280;1776;53.330;11.498;2023-02-05T08:34:27;23499.63;;;-147.39;63.88
3524;BME280;1776;53.330;11.498;2023-02-05T08:36:52;23487.44;;;-147.39;63.67
3524;BME280;1776;53.330;11.498;2023-02-05T08:39:18;23526.06;;;-147.39;63.84
3524;BME280;1776;53.330;11.498;2023-02-05T08:41:43;23538.25;;;-147.39;63.08
3524;BME280;1776;53.330;11.498;2023-02-05T08:44:08;23550.47;;;-147.39;62.98
3524;BME280;1776;53.330;11.498;2023-02-05T08:46:34;23536.22;;;-147.39;62.69
3524;BME280;1776;53.330;11.498;2023-02-05T08:48:59;23576.88;;;-147.39;62.75
3524;BME280;1776;53.330;11.498;2023-02-05T08:51:24;23560.63;;;-147.39;62.65
3524;BME280;1776;53.330;11.498;2023-02-05T08:53:49;23552.50;;;-147.39;62.48
3524;BME280;1776;53.330;11.498;2023-02-05T08:56:15;23540.28;;;-147.39;62.18
3524;BME280;1776;53.330;11.498;2023-02-05T08:58:41;23532.16;;;-147.39;62.78
3524;BME280;1776;53.330;11.498;2023-02-05T09:01:10;23538.25;;;-147.39;62.48
3524;BME280;1776;53.330;11.498;2023-02-05T09:03:35;23489.47;;;-147.39;62.39
3524;BME280;1776;53.330;11.498;2023-02-05T09:06:07;23532.16;;;-147.39;62.52
3524;BME280;1776;53.330;11.498;2023-02-05T09:08:33;23560.63;;;-147.39;61.68
3524;BME280;1776;53.330;11.498;2023-02-05T09:10:58;23591.13;;;-147.39;60.99
3524;BME280;1776;53.330;11.498;2023-02-05T09:13:23;23627.72;;;-147.39;60.17
3524;BME280;1776;53.330;11.498;2023-02-05T09:15:49;23641.94;;;-147.39;59.53
3524;BME280;1776;53.330;11.498;2023-02-05T09:18:15;23666.34;;;-147.39;58.04
3524;BME280;1776;53.330;11.498;2023-02-05T09:20:43;23723.28;;;-147.39;56.17
3524;BME280;1776;53.330;11.498;2023-02-05T09:23:10;23800.53;;;-147.39;55.32
3524;BME280;1776;53.330;11.498;2023-02-05T09:25:37;23792.41;;;-147.39;54.14
3524;BME280;1776;53.330;11.498;2023-02-05T09:28:03;23849.31;;;-147.39;53.85
3524;BME280;1776;53.330;11.498;2023-02-05T09:30:28;23942.84;;;-147.39;51.52
3524;BME280;1776;53.330;11.498;2023-02-05T09:32:53;23938.78;;;-147.39;51.00
3524;BME280;1776;53.330;11.498;2023-02-05T09:35:18;23957.09;;;-147.39;50.16
3524;BME280;1776;53.330;11.498;2023-02-05T09:37:44;23993.69;;;-147.39;49.17
3524;BME280;1776;53.330;11.498;2023-02-05T09:40:18;24190.91;;;-147.39;47.43
3524;BME280;1776;53.330;11.498;2023-02-05T09:42:56;24390.19;;;-147.39;43.21
3524;BME280;1776;53.330;11.498;2023-02-05T09:45:55;24520.31;;;-147.39;41.66
3524;BME280;1776;53.330;11.498;2023-02-05T09:51:08;24369.84;;;-147.39;43.30
3524;BME280;1776;53.330;11.498;2023-02-05T09:53:37;24160.41;;;-147.39;47.07
3524;BME280;1776;53.330;11.498;2023-02-05T09:56:06;24068.91;;;-147.39;49.75
3524;BME280;1776;53.330;11.498;2023-02-05T09:58:39;23959.13;;;-147.39;52.33
3524;BME280;1776;53.330;11.498;2023-02-05T10:01:08;23959.13;;;-147.39;52.78
3524;BME280;1776;53.330;11.498;2023-02-05T10:03:43;23887.94;;;-147.39;54.32
3524;BME280;1776;53.330;11.498;2023-02-05T10:06:37;23853.38;;;-147.39;54.47
3524;BME280;1776;53.330;11.498;2023-02-05T10:09:30;23816.78;;;-147.39;54.96
3524;BME280;1776;53.330;11.498;2023-02-05T10:12:18;23808.66;;;-147.39;55.57
3524;BME280;1776;53.330;11.498;2023-02-05T10:20:52;23804.59;;;-147.39;56.69
3524;BME280;1776;53.330;11.498;2023-02-05T10:26:08;23786.28;;;-147.39;56.51
3524;BME280;1776;53.330;11.498;2023-02-05T10:34:32;23792.41;;;-147.39;56.76
3524;BME280;1776;53.330;11.498;2023-02-05T10:37:07;23814.75;;;-147.39;56.37
3524;BME280;1776;53.330;11.498;2023-02-05T10:39:35;24079.06;;;-147.39;56.34
3524;BME280;1776;53.330;11.498;2023-02-05T10:42:16;23938.78;;;-147.39;56.09
3524;BME280;1776;53.330;11.498;2023-02-05T10:44:45;23833.06;;;-147.39;55.70
3524;BME280;1776;53.330;11.498;2023-02-05T10:47:18;23863.56;;;-147.39;55.33
3524;BME280;1776;53.330;11.498;2023-02-05T10:49:56;23808.66;;;-147.39;55.63
3524;BME280;1776;53.330;11.498;2023-02-05T10:52:25;23839.16;;;-147.39;55.44
3524;BME280;1776;53.330;11.498;2023-02-05T10:54:50;23702.94;;;-147.39;63.20
3524;BME280;1776;53.330;11.498;2023-02-05T10:57:18;23711.06;;;-147.39;63.12
3524;BME280;1776;53.330;11.498;2023-02-05T10:59:52;23759.88;;;-147.39;62.31
3524;BME280;1776;53.330;11.498;2023-02-05T11:02:18;23835.09;;;-147.39;58.67
3524;BME280;1776;53.330;11.498;2023-02-05T11:04:49;23851.34;;;-147.39;56.60
3524;BME280;1776;53.330;11.498;2023-02-05T11:07:33;23900.16;;;-147.39;54.78
3524;BME280;1776;53.330;11.498;2023-02-05T11:10:16;23837.13;;;-147.39;55.10
3524;BME280;1776;53.330;11.498;2023-02-05T11:12:44;23831.03;;;-147.39;55.46
3524;BME280;1776;53.330;11.498;2023-02-05T11:15:19;23845.25;;;-147.39;55.24
3524;BME280;1776;53.330;11.498;2023-02-05T11:17:50;23857.47;;;-147.39;54.60
3524;BME280;1776;53.330;11.498;2023-02-05T11:22:41;23859.50;;;-147.39;54.16
3524;BME280;1776;53.330;11.498;2023-02-05T11:25:16;23841.19;;;-147.39;55.13
3524;BME280;1776;53.330;11.498;2023-02-05T11:28:14;23849.31;;;-147.39;54.92
3524;BME280;1776;53.330;11.498;2023-02-05T11:30:42;23857.47;;;-147.39;54.31
3524;BME280;1776;53.330;11.498;2023-02-05T11:36:05;23863.56;;;-147.39;54.81
3524;BME280;1776;53.330;11.498;2023-02-05T11:41:10;23894.06;;;-147.39;53.18
3524;BME280;1776;53.330;11.498;2023-02-05T11:43:40;23871.69;;;-147.39;52.84
3524;BME280;1776;53.330;11.498;2023-02-05T11:46:14;23887.94;;;-147.39;53.14
3524;BME280;1776;53.330;11.498;2023-02-05T11:49:02;23918.44;;;-147.39;53.43
3524;BME280;1776;53.330;11.498;2023-02-05T11:51:42;23959.13;;;-147.39;53.33
3524;BME280;1776;53.330;11.498;2023-02-05T11:54:30;23892.03;;;-147.39;53.66
3524;BME280;1776;53.330;11.498;2023-02-05T11:59:38;23914.38;;;-147.39;53.59
3524;BME280;1776;53.330;11.498;2023-02-05T12:04:57;23918.44;;;-147.39;54.13
3524;BME280;1776;53.330;11.498;2023-02-05T12:07:25;23995.72;;;-147.39;53.31
3524;BME280;1776;53.330;11.498;2023-02-05T12:09:52;23932.69;;;-147.39;53.04
3524;BME280;1776;53.330;11.498;2023-02-05T12:12:47;23977.41;;;-147.39;52.32
3524;BME280;1776;53.330;11.498;2023-02-05T12:15:21;23940.81;;;-147.39;52.50
3524;BME280;1776;53.330;11.498;2023-02-05T12:18:20;23981.47;;;-147.39;52.04
3524;BME280;1776;53.330;11.498;2023-02-05T12:20:44;23983.50;;;-147.39;52.20
3524;BME280;1776;53.330;11.498;2023-02-05T12:29:14;23946.91;;;-147.39;53.64
3524;BME280;1776;53.330;11.498;2023-02-05T12:37:25;23957.09;;;-147.39;53.59
3524;BME280;1776;53.330;11.498;2023-02-05T12:39:57;23944.88;;;-147.39;53.80
3524;BME280;1776;53.330;11.498;2023-02-05T12:42:43;23973.34;;;-147.39;54.40
3524;BME280;1776;53.330;11.498;2023-02-05T12:45:27;23906.25;;;-147.39;53.69
3524;BME280;1776;53.330;11.498;2023-02-05T12:59:05;23967.25;;;-147.39;53.30
3524;BME280;1776;53.330;11.498;2023-02-05T13:01:45;23948.94;;;-147.39;52.87
3524;BME280;1776;53.330;11.498;2023-02-05T13:06:55;23977.41;;;-147.39;53.54
3524;BME280;1776;53.330;11.498;2023-02-05T13:09:28;24011.97;;;-147.39;52.82
3524;BME280;1776;53.330;11.498;2023-02-05T13:11:58;23999.78;;;-147.39;52.79
3524;BME280;1776;53.330;11.498;2023-02-05T13:14:36;23963.19;;;-147.39;55.63
3524;BME280;1776;53.330;11.498;2023-02-05T13:17:06;23987.56;;;-147.39;54.17
3524;BME280;1776;53.330;11.498;2023-02-05T13:19:42;23999.78;;;-147.39;52.46
3524;BME280;1776;53.330;11.498;2023-02-05T13:22:18;24020.09;;;-147.39;51.66
3524;BME280;1776;53.330;11.498;2023-02-05T13:25:27;23975.38;;;-147.39;50.94
3524;BME280;1776;53.330;11.498;2023-02-05T13:31:20;24125.84;;;-147.39;50.93
3524;BME280;1776;53.330;11.498;2023-02-05T13:33:47;24036.38;;;-147.39;50.55
3524;BME280;1776;53.330;11.498;2023-02-05T13:44:53;24099.41;;;-147.39;49.78
3524;BME280;1776;53.330;11.498;2023-02-05T13:53:46;24131.94;;;-147.39;49.05
3524;BME280;1776;53.330;11.498;2023-02-05T13:56:40;24172.59;;;-147.39;48.83
3524;BME280;1776;53.330;11.498;2023-02-05T13:59:27;24170.56;;;-147.39;48.73
3524;BME280;1776;53.330;11.498;2023-02-05T14:01:58;24213.28;;;-147.39;48.14
3524;BME280;1776;53.330;11.498;2023-02-05T14:04:29;24184.81;;;-147.39;48.05
3524;BME280;1776;53.330;11.498;2023-02-05T14:07:03;24184.81;;;-147.39;48.34
3524;BME280;1776;53.330;11.498;2023-02-05T14:09:52;24172.59;;;-147.39;48.69
3524;BME280;1776;53.330;11.498;2023-02-05T14:12:29;24199.03;;;-147.39;48.46
3524;BME280;1776;53.330;11.498;2023-02-05T14:22:48;24192.94;;;-147.39;47.44
3524;BME280;1776;53.330;11.498;2023-02-05T14:28:00;24211.25;;;-147.39;47.74
3524;BME280;1776;53.330;11.498;2023-02-05T14:33:00;24194.97;;;-147.39;47.13
3524;BME280;1776;53.330;11.498;2023-02-05T14:35:31;24213.28;;;-147.39;47.53
3524;BME280;1776;53.330;11.498;2023-02-05T14:38:00;24264.09;;;-147.39;47.93
3524;BME280;1776;53.330;11.498;2023-02-05T14:40:31;24197.00;;;-147.39;46.21
3524;BME280;1776;53.330;11.498;2023-02-05T14:43:11;24160.41;;;-147.39;47.56
3524;BME280;1776;53.330;11.498;2023-02-05T14:45:45;24170.56;;;-147.39;47.74